sensor_id;sensor_type;location;lat;lon;timestamp;temperature;humidity
4366;DHT22;2196;47.422;9.656;2023-07-29T00:00:44;18.00;99.90
4366;DHT22;2196;47.422;9.656;2023-07-29T00:03:11;18.00;99.90
4366;DHT22;2196;47.422;9.656;2023-07-29T00:05:39;18.00;99.90
4366;DHT22;2196;47.422;9.656;2023-07-29T00:08:06;18.00;99.90
4366;DHT22;2196;47.422;9.656;2023-07-29T00:10:36;18.00;99.90
4366;DHT22;2196;47.422;9.656;2023-07-29T00:13:04;18.00;99.90
4366;DHT22;2196;47.422;9.656;2023-07-29T00:15:31;18.10;99.90
4366;DHT22;2196;47.422;9.656;2023-07-29T00:17:58;18.00;99.90
4366;DHT22;2196;47.422;9.656;2023-07-29T00:20:25;18.00;99.90
4366;DHT22;2196;47.422;9.656;2023-07-29T00:22:52;18.00;99.90
4366;DHT22;2196;47.422;9.656;2023-07-29T00:25:20;18.00;99.90
4366;DHT22;2196;47.422;9.656;2023-07-29T00:27:51;18.00;99.90
4366;DHT22;2196;47.422;9.656;2023-07-29T00:30:18;18.00;99.90
4366;DHT22;2196;47.422;9.656;2023-07-29T00:32:49;18.00;99.90
4366;DHT22;2196;47.422;9.656;2023-07-29T00:35:16;18.00;99.90
4366;DHT22;2196;47.422;9.656;2023-07-29T00:37:43;18.00;99.90
4366;DHT22;2196;47.422;9.656;2023-07-29T00:40:15;18.00;99.90
4366;DHT22;2196;47.422;9.656;2023-07-29T00:42:42;18.00;99.90
4366;DHT22;2196;47.422;9.656;2023-07-29T00:45:11;18.00;99.90
4366;DHT22;2196;47.422;9.656;2023-07-29T00:47:38;18.00;99.90
4366;DHT22;2196;47.422;9.656;2023-07-29T00:50:08;17.90;99.90
4366;DHT22;2196;47.422;9.656;2023-07-29T00:52:36;17.90;99.90
4366;DHT22;2196;47.422;9.656;2023-07-29T00:55:03;17.90;99.90
4366;DHT22;2196;47.422;9.656;2023-07-29T00:57:31;17.90;99.90
4366;DHT22;2196;47.422;9.656;2023-07-29T00:59:58;17.90;99.90
4366;DHT22;2196;47.422;9.656;2023-07-29T01:02:27;17.90;99.90
4366;DHT22;2196;47.422;9.656;2023-07-29T01:04:57;17.80;99.90
4366;DHT22;2196;47.422;9.656;2023-07-29T01:07:30;17.80;99.90
4366;DHT22;2196;47.422;9.656;2023-07-29T01:10:02;17.80;99.90
4366;DHT22;2196;47.422;9.656;2023-07-29T01:12:36;17.80;99.90
4366;DHT22;2196;47.422;9.656;2023-07-29T01:15:09;17.80;99.90
4366;DHT22;2196;47.422;9.656;2023-07-29T01:17:43;17.80;99.90
4366;DHT22;2196;47.422;9.656;2023-07-29T01:20:17;17.70;99.90
4366;DHT22;2196;47.422;9.656;2023-07-29T01:22:49;17.70;99.90
4366;DHT22;2196;47.422;9.656;2023-07-29T01:25:17;17.70;99.90
4366;DHT22;2196;47.422;9.656;2023-07-29T01:27:46;17.70;99.90
4366;DHT22;2196;47.422;9.656;2023-07-29T01:30:17;17.70;99.90
4366;DHT22;2196;47.422;9.656;2023-07-29T01:32:53;17.70;99.90
4366;DHT22;2196;47.422;9.656;2023-07-29T01:35:24;17.70;99.90
4366;DHT22;2196;47.422;9.656;2023-07-29T01:37:54;17.70;99.90
4366;DHT22;2196;47.422;9.656;2023-07-29T01:40:27;17.70;99.90
4366;DHT22;2196;47.422;9.656;2023-07-29T01:42:55;17.70;99.90
4366;DHT22;2196;47.422;9.656;2023-07-29T01:45:23;17.70;99.90
4366;DHT22;2196;47.422;9.656;2023-07-29T01:47:51;17.60;99.90
4366;DHT22;2196;47.422;9.656;2023-07-29T01:50:18;17.60;99.90
4366;DHT22;2196;47.422;9.656;2023-07-29T01:52:45;17.50;99.90
4366;DHT22;2196;47.422;9.656;2023-07-29T01:55:12;17.50;99.90
4366;DHT22;2196;47.422;9.656;2023-07-29T01:57:40;17.50;99.90
4366;DHT22;2196;47.422;9.656;2023-07-29T02:00:08;17.50;99.90
4366;DHT22;2196;47.422;9.656;2023-07-29T02:02:35;17.40;99.90
4366;DHT22;2196;47.422;9.656;2023-07-29T02:05:02;17.40;99.90
4366;DHT22;2196;47.422;9.656;2023-07-29T02:07:29;17.50;99.90
4366;DHT22;2196;47.422;9.656;2023-07-29T02:09:56;17.50;99.90
4366;DHT22;2196;47.422;9.656;2023-07-29T02:12:24;17.60;99.90
4366;DHT22;2196;47.422;9.656;2023-07-29T02:14:52;17.50;99.90
4366;DHT22;2196;47.422;9.656;2023-07-29T02:17:19;17.50;99.90
4366;DHT22;2196;47.422;9.656;2023-07-29T02:19:46;17.50;99.90
4366;DHT22;2196;47.422;9.656;2023-07-29T02:22:15;17.50;99.90
4366;DHT22;2196;47.422;9.656;2023-07-29T02:24:42;17.60;99.90
4366;DHT22;2196;47.422;9.656;2023-07-29T02:27:09;17.60;99.90
4366;DHT22;2196;47.422;9.656;2023-07-29T02:29:36;17.60;99.90
4366;DHT22;2196;47.422;9.656;2023-07-29T02:32:05;17.70;99.90
4366;DHT22;2196;47.422;9.656;2023-07-29T02:34:32;17.80;99.90
4366;DHT22;2196;47.422;9.656;2023-07-29T02:36:58;17.70;99.90
4366;DHT22;2196;47.422;9.656;2023-07-29T02:39:25;17.70;99.90
4366;DHT22;2196;47.422;9.656;2023-07-29T02:41:52;17.70;99.90
4366;DHT22;2196;47.422;9.656;2023-07-29T02:44:20;17.70;99.90
4366;DHT22;2196;47.422;9.656;2023-07-29T02:46:47;17.70;99.90
4366;DHT22;2196;47.422;9.656;2023-07-29T02:49:16;17.80;99.90
4366;DHT22;2196;47.422;9.656;2023-07-29T02:51:43;17.80;99.90
4366;DHT22;2196;47.422;9.656;2023-07-29T02:54:09;17.80;99.90
4366;DHT22;2196;47.422;9.656;2023-07-29T02:56:36;17.80;99.90
4366;DHT22;2196;47.422;9.656;2023-07-29T02:59:03;17.90;99.90
4366;DHT22;2196;47.422;9.656;2023-07-29T03:01:30;17.90;99.90
4366;DHT22;2196;47.422;9.656;2023-07-29T03:03:57;17.80;99.90
4366;DHT22;2196;47.422;9.656;2023-07-29T03:06:26;17.90;99.90
4366;DHT22;2196;47.422;9.656;2023-07-29T03:08:53;17.80;99.90
4366;DHT22;2196;47.422;9.656;2023-07-29T03:11:20;17.80;99.90
4366;DHT22;2196;47.422;9.656;2023-07-29T03:13:46;17.80;99.90
4366;DHT22;2196;47.422;9.656;2023-07-29T03:16:15;17.70;99.90
4366;DHT22;2196;47.422;9.656;2023-07-29T03:18:43;17.70;99.90
4366;DHT22;2196;47.422;9.656;2023-07-29T03:21:10;17.60;99.90
4366;DHT22;2196;47.422;9.656;2023-07-29T03:23:39;17.60;99.90
4366;DHT22;2196;47.422;9.656;2023-07-29T03:26:06;17.60;99.90
4366;DHT22;2196;47.422;9.656;2023-07-29T03:28:37;17.70;99.90
4366;DHT22;2196;47.422;9.656;2023-07-29T03:31:04;17.60;99.90
4366;DHT22;2196;47.422;9.656;2023-07-29T03:33:31;17.60;99.90
4366;DHT22;2196;47.422;9.656;2023-07-29T03:35:58;17.60;99.90
4366;DHT22;2196;47.422;9.656;2023-07-29T03:38:25;17.60;99.90
4366;DHT22;2196;47.422;9.656;2023-07-29T03:40:54;17.60;99.90
4366;DHT22;2196;47.422;9.656;2023-07-29T03:43:21;17.50;99.90
4366;DHT22;2196;47.422;9.656;2023-07-29T03:45:48;17.50;99.90
4366;DHT22;2196;47.422;9.656;2023-07-29T03:48:15;17.50;99.90
4366;DHT22;2196;47.422;9.656;2023-07-29T03:50:42;17.50;99.90
4366;DHT22;2196;47.422;9.656;2023-07-29T03:53:09;17.50;99.90
4366;DHT22;2196;47.422;9.656;2023-07-29T03:55:36;17.60;99.90
4366;DHT22;2196;47.422;9.656;2023-07-29T03:58:04;17.50;99.90
4366;DHT22;2196;47.422;9.656;2023-07-29T04:00:31;17.60;99.90
4366;DHT22;2196;47.422;9.656;2023-07-29T04:02:58;17.60;99.90
4366;DHT22;2196;47.422;9.656;2023-07-29T04:05:25;17.60;99.90
4366;DHT22;2196;47.422;9.656;2023-07-29T04:07:54;17.70;99.90
4366;DHT22;2196;47.422;9.656;2023-07-29T04:10:21;17.60;99.90
4366;DHT22;2196;47.422;9.656;2023-07-29T04:12:48;17.70;99.90
4366;DHT22;2196;47.422;9.656;2023-07-29T04:15:16;17.80;99.90
4366;DHT22;2196;47.422;9.656;2023-07-29T04:17:43;17.80;99.90
4366;DHT22;2196;47.422;9.656;2023-07-29T04:20:11;17.80;99.90
4366;DHT22;2196;47.422;9.656;2023-07-29T04:22:38;17.80;99.90
4366;DHT22;2196;47.422;9.656;2023-07-29T04:25:06;17.80;99.90
4366;DHT22;2196;47.422;9.656;2023-07-29T04:27:33;17.80;99.90
4366;DHT22;2196;47.422;9.656;2023-07-29T04:30:00;17.70;99.90
4366;DHT22;2196;47.422;9.656;2023-07-29T04:32:28;17.70;99.90
4366;DHT22;2196;47.422;9.656;2023-07-29T04:34:55;17.60;99.90
4366;DHT22;2196;47.422;9.656;2023-07-29T04:37:22;17.70;99.90
4366;DHT22;2196;47.422;9.656;2023-07-29T04:39:49;17.60;99.90
4366;DHT22;2196;47.422;9.656;2023-07-29T04:42:16;17.60;99.90
4366;DHT22;2196;47.422;9.656;2023-07-29T04:44:43;17.60;99.90
4366;DHT22;2196;47.422;9.656;2023-07-29T04:47:10;17.60;99.90
4366;DHT22;2196;47.422;9.656;2023-07-29T04:49:38;17.50;99.90
4366;DHT22;2196;47.422;9.656;2023-07-29T04:52:06;17.60;99.90
4366;DHT22;2196;47.422;9.656;2023-07-29T04:54:35;17.60;99.90
4366;DHT22;2196;47.422;9.656;2023-07-29T04:57:02;17.50;99.90
4366;DHT22;2196;47.422;9.656;2023-07-29T04:59:29;17.50;99.90
4366;DHT22;2196;47.422;9.656;2023-07-29T05:01:56;17.50;99.90
4366;DHT22;2196;47.422;9.656;2023-07-29T05:04:23;17.50;99.90
4366;DHT22;2196;47.422;9.656;2023-07-29T05:06:52;17.50;99.90
4366;DHT22;2196;47.422;9.656;2023-07-29T05:09:19;17.50;99.90
4366;DHT22;2196;47.422;9.656;2023-07-29T05:11:47;17.60;99.90
4366;DHT22;2196;47.422;9.656;2023-07-29T05:14:17;17.60;99.90
4366;DHT22;2196;47.422;9.656;2023-07-29T05:16:44;17.60;99.90
4366;DHT22;2196;47.422;9.656;2023-07-29T05:19:11;17.60;99.90
4366;DHT22;2196;47.422;9.656;2023-07-29T05:21:39;17.70;99.90
4366;DHT22;2196;47.422;9.656;2023-07-29T05:24:07;17.70;99.90
4366;DHT22;2196;47.422;9.656;2023-07-29T05:26:34;17.70;99.90
4366;DHT22;2196;47.422;9.656;2023-07-29T05:29:01;17.70;99.90
4366;DHT22;2196;47.422;9.656;2023-07-29T05:31:29;17.70;99.90
4366;DHT22;2196;47.422;9.656;2023-07-29T05:33:56;17.80;99.90
4366;DHT22;2196;47.422;9.656;2023-07-29T05:36:23;18.00;99.90
4366;DHT22;2196;47.422;9.656;2023-07-29T05:38:51;18.30;99.90
4366;DHT22;2196;47.422;9.656;2023-07-29T05:41:20;18.40;99.90
4366;DHT22;2196;47.422;9.656;2023-07-29T05:43:47;18.70;99.90
4366;DHT22;2196;47.422;9.656;2023-07-29T05:46:14;18.80;99.90
4366;DHT22;2196;47.422;9.656;2023-07-29T05:48:40;18.80;99.90
4366;DHT22;2196;47.422;9.656;2023-07-29T05:51:07;18.70;99.90
4366;DHT22;2196;47.422;9.656;2023-07-29T05:53:34;18.70;99.90
4366;DHT22;2196;47.422;9.656;2023-07-29T05:56:01;18.70;99.90
4366;DHT22;2196;47.422;9.656;2023-07-29T05:58:30;18.80;99.90
4366;DHT22;2196;47.422;9.656;2023-07-29T06:00:57;19.00;99.90
4366;DHT22;2196;47.422;9.656;2023-07-29T06:03:24;19.90;99.90
4366;DHT22;2196;47.422;9.656;2023-07-29T06:05:51;20.80;99.90
4366;DHT22;2196;47.422;9.656;2023-07-29T06:08:18;21.80;99.90
4366;DHT22;2196;47.422;9.656;2023-07-29T06:10:45;22.60;99.90
4366;DHT22;2196;47.422;9.656;2023-07-29T06:13:12;23.20;99.90
4366;DHT22;2196;47.422;9.656;2023-07-29T06:15:41;23.00;99.90
4366;DHT22;2196;47.422;9.656;2023-07-29T06:18:08;22.60;99.90
4366;DHT22;2196;47.422;9.656;2023-07-29T06:20:35;22.00;99.90
4366;DHT22;2196;47.422;9.656;2023-07-29T06:23:02;21.50;99.90
4366;DHT22;2196;47.422;9.656;2023-07-29T06:25:29;21.20;99.90
4366;DHT22;2196;47.422;9.656;2023-07-29T06:27:56;20.80;99.90
4366;DHT22;2196;47.422;9.656;2023-07-29T06:30:23;20.50;99.90
4366;DHT22;2196;47.422;9.656;2023-07-29T06:32:52;20.20;99.90
4366;DHT22;2196;47.422;9.656;2023-07-29T06:35:20;20.00;99.90
4366;DHT22;2196;47.422;9.656;2023-07-29T06:37:47;19.80;99.90
4366;DHT22;2196;47.422;9.656;2023-07-29T06:40:14;19.60;99.90
4366;DHT22;2196;47.422;9.656;2023-07-29T06:42:41;19.50;99.90
4366;DHT22;2196;47.422;9.656;2023-07-29T06:45:09;19.50;99.90
4366;DHT22;2196;47.422;9.656;2023-07-29T06:47:36;19.30;99.90
4366;DHT22;2196;47.422;9.656;2023-07-29T06:50:05;19.30;99.90
4366;DHT22;2196;47.422;9.656;2023-07-29T06:52:32;19.30;99.90
4366;DHT22;2196;47.422;9.656;2023-07-29T06:54:59;19.20;99.90
4366;DHT22;2196;47.422;9.656;2023-07-29T06:57:26;19.10;99.90
4366;DHT22;2196;47.422;9.656;2023-07-29T06:59:53;19.10;99.90
4366;DHT22;2196;47.422;9.656;2023-07-29T07:02:20;19.00;99.90
4366;DHT22;2196;47.422;9.656;2023-07-29T07:04:47;19.00;99.90
4366;DHT22;2196;47.422;9.656;2023-07-29T07:07:16;19.00;99.90
4366;DHT22;2196;47.422;9.656;2023-07-29T07:09:43;19.00;99.90
4366;DHT22;2196;47.422;9.656;2023-07-29T07:12:10;19.00;99.90
4366;DHT22;2196;47.422;9.656;2023-07-29T07:14:39;19.20;99.90
4366;DHT22;2196;47.422;9.656;2023-07-29T07:17:06;19.40;99.90
4366;DHT22;2196;47.422;9.656;2023-07-29T07:19:33;19.90;99.90
4366;DHT22;2196;47.422;9.656;2023-07-29T07:22:00;20.20;99.90
4366;DHT22;2196;47.422;9.656;2023-07-29T07:24:29;20.50;99.90
4366;DHT22;2196;47.422;9.656;2023-07-29T07:26:56;20.70;99.90
4366;DHT22;2196;47.422;9.656;2023-07-29T07:29:23;20.80;99.90
4366;DHT22;2196;47.422;9.656;2023-07-29T07:31:51;20.80;99.90
4366;DHT22;2196;47.422;9.656;2023-07-29T07:34:19;20.70;99.90
4366;DHT22;2196;47.422;9.656;2023-07-29T07:36:46;20.50;99.90
4366;DHT22;2196;47.422;9.656;2023-07-29T07:39:13;20.40;99.90
4366;DHT22;2196;47.422;9.656;2023-07-29T07:41:42;20.40;99.90
4366;DHT22;2196;47.422;9.656;2023-07-29T07:44:09;20.40;99.90
4366;DHT22;2196;47.422;9.656;2023-07-29T07:46:36;20.30;99.90
4366;DHT22;2196;47.422;9.656;2023-07-29T07:49:03;20.70;99.90
4366;DHT22;2196;47.422;9.656;2023-07-29T07:51:30;21.50;99.90
4366;DHT22;2196;47.422;9.656;2023-07-29T07:53:57;22.40;99.90
4366;DHT22;2196;47.422;9.656;2023-07-29T07:56:24;23.30;99.90
4366;DHT22;2196;47.422;9.656;2023-07-29T07:58:53;23.90;99.90
4366;DHT22;2196;47.422;9.656;2023-07-29T08:01:20;24.50;99.90
4366;DHT22;2196;47.422;9.656;2023-07-29T08:03:47;25.30;99.90
4366;DHT22;2196;47.422;9.656;2023-07-29T08:06:14;25.60;99.90
4366;DHT22;2196;47.422;9.656;2023-07-29T08:08:41;25.40;99.90
4366;DHT22;2196;47.422;9.656;2023-07-29T08:11:08;25.50;99.90
4366;DHT22;2196;47.422;9.656;2023-07-29T08:13:35;26.10;99.90
4366;DHT22;2196;47.422;9.656;2023-07-29T08:16:04;26.70;99.90
4366;DHT22;2196;47.422;9.656;2023-07-29T08:18:31;27.40;99.90
4366;DHT22;2196;47.422;9.656;2023-07-29T08:21:00;27.40;99.90
4366;DHT22;2196;47.422;9.656;2023-07-29T08:23:29;27.60;99.90
4366;DHT22;2196;47.422;9.656;2023-07-29T08:25:57;27.60;99.90
4366;DHT22;2196;47.422;9.656;2023-07-29T08:28:27;27.90;99.90
4366;DHT22;2196;47.422;9.656;2023-07-29T08:30:55;28.10;99.90
4366;DHT22;2196;47.422;9.656;2023-07-29T08:33:24;28.30;99.90
4366;DHT22;2196;47.422;9.656;2023-07-29T08:35:52;28.40;99.90
4366;DHT22;2196;47.422;9.656;2023-07-29T08:38:19;28.20;99.90
4366;DHT22;2196;47.422;9.656;2023-07-29T08:40:50;28.20;99.90
4366;DHT22;2196;47.422;9.656;2023-07-29T08:43:20;27.80;99.90
4366;DHT22;2196;47.422;9.656;2023-07-29T08:45:49;27.50;99.90
4366;DHT22;2196;47.422;9.656;2023-07-29T08:48:27;27.60;99.90
4366;DHT22;2196;47.422;9.656;2023-07-29T08:50:56;27.90;99.90
4366;DHT22;2196;47.422;9.656;2023-07-29T08:53:24;27.90;99.90
4366;DHT22;2196;47.422;9.656;2023-07-29T08:55:51;27.50;99.90
4366;DHT22;2196;47.422;9.656;2023-07-29T08:58:19;27.50;99.90
4366;DHT22;2196;47.422;9.656;2023-07-29T09:00:47;27.20;99.90
4366;DHT22;2196;47.422;9.656;2023-07-29T09:03:15;26.70;99.90
4366;DHT22;2196;47.422;9.656;2023-07-29T09:05:43;26.20;99.90
4366;DHT22;2196;47.422;9.656;2023-07-29T09:08:11;26.00;99.90
4366;DHT22;2196;47.422;9.656;2023-07-29T09:10:38;25.70;99.90
4366;DHT22;2196;47.422;9.656;2023-07-29T09:13:06;25.40;99.90
4366;DHT22;2196;47.422;9.656;2023-07-29T09:15:35;25.30;99.90
4366;DHT22;2196;47.422;9.656;2023-07-29T09:18:09;25.10;99.90
4366;DHT22;2196;47.422;9.656;2023-07-29T09:20:37;25.00;99.90
4366;DHT22;2196;47.422;9.656;2023-07-29T09:23:08;25.30;99.90
4366;DHT22;2196;47.422;9.656;2023-07-29T09:25:36;25.90;99.90
4366;DHT22;2196;47.422;9.656;2023-07-29T09:28:09;26.10;99.90
4366;DHT22;2196;47.422;9.656;2023-07-29T09:30:36;26.10;99.90
4366;DHT22;2196;47.422;9.656;2023-07-29T09:33:03;25.80;99.90
4366;DHT22;2196;47.422;9.656;2023-07-29T09:35:33;25.60;99.90
4366;DHT22;2196;47.422;9.656;2023-07-29T09:38:01;25.50;99.90
4366;DHT22;2196;47.422;9.656;2023-07-29T09:40:34;25.50;99.90
4366;DHT22;2196;47.422;9.656;2023-07-29T09:43:02;25.60;99.90
4366;DHT22;2196;47.422;9.656;2023-07-29T09:45:29;25.50;99.90
4366;DHT22;2196;47.422;9.656;2023-07-29T09:47:57;25.40;99.90
4366;DHT22;2196;47.422;9.656;2023-07-29T09:50:25;25.30;99.90
4366;DHT22;2196;47.422;9.656;2023-07-29T09:52:53;25.20;99.90
4366;DHT22;2196;47.422;9.656;2023-07-29T09:55:22;25.20;99.90
4366;DHT22;2196;47.422;9.656;2023-07-29T09:57:56;25.30;99.90
4366;DHT22;2196;47.422;9.656;2023-07-29T10:00:23;25.50;99.90
4366;DHT22;2196;47.422;9.656;2023-07-29T10:02:52;25.50;99.90
4366;DHT22;2196;47.422;9.656;2023-07-29T10:05:21;25.80;99.90
4366;DHT22;2196;47.422;9.656;2023-07-29T10:07:50;26.00;99.90
4366;DHT22;2196;47.422;9.656;2023-07-29T10:10:18;26.10;99.90
4366;DHT22;2196;47.422;9.656;2023-07-29T10:12:46;26.60;99.90
4366;DHT22;2196;47.422;9.656;2023-07-29T10:15:17;27.30;99.90
4366;DHT22;2196;47.422;9.656;2023-07-29T10:17:45;28.10;99.90
4366;DHT22;2196;47.422;9.656;2023-07-29T10:20:12;28.40;99.90
4366;DHT22;2196;47.422;9.656;2023-07-29T10:22:41;28.40;99.90
4366;DHT22;2196;47.422;9.656;2023-07-29T10:25:12;28.50;99.90
4366;DHT22;2196;47.422;9.656;2023-07-29T10:27:43;28.90;99.90
4366;DHT22;2196;47.422;9.656;2023-07-29T10:30:18;29.00;99.90
4366;DHT22;2196;47.422;9.656;2023-07-29T10:32:46;28.40;99.90
4366;DHT22;2196;47.422;9.656;2023-07-29T10:35:16;28.00;99.90
4366;DHT22;2196;47.422;9.656;2023-07-29T10:37:44;27.70;99.90
4366;DHT22;2196;47.422;9.656;2023-07-29T10:40:11;27.40;99.90
4366;DHT22;2196;47.422;9.656;2023-07-29T10:42:41;27.20;99.90
4366;DHT22;2196;47.422;9.656;2023-07-29T10:45:26;27.00;99.90
4366;DHT22;2196;47.422;9.656;2023-07-29T10:48:06;27.00;99.90
4366;DHT22;2196;47.422;9.656;2023-07-29T10:50:34;26.80;99.90
4366;DHT22;2196;47.422;9.656;2023-07-29T10:53:01;26.70;99.90
4366;DHT22;2196;47.422;9.656;2023-07-29T10:55:29;26.90;99.90
4366;DHT22;2196;47.422;9.656;2023-07-29T10:58:08;27.60;99.90
4366;DHT22;2196;47.422;9.656;2023-07-29T11:00:36;28.00;99.90
4366;DHT22;2196;47.422;9.656;2023-07-29T11:03:06;28.30;99.90
4366;DHT22;2196;47.422;9.656;2023-07-29T11:05:47;28.20;99.90
4366;DHT22;2196;47.422;9.656;2023-07-29T11:08:20;28.40;99.90
4366;DHT22;2196;47.422;9.656;2023-07-29T11:11:04;28.70;99.90
4366;DHT22;2196;47.422;9.656;2023-07-29T11:13:34;29.00;99.90
4366;DHT22;2196;47.422;9.656;2023-07-29T11:16:03;29.00;99.90
4366;DHT22;2196;47.422;9.656;2023-07-29T11:18:31;29.00;99.90
4366;DHT22;2196;47.422;9.656;2023-07-29T11:21:00;28.70;99.90
4366;DHT22;2196;47.422;9.656;2023-07-29T11:23:29;28.10;99.90
4366;DHT22;2196;47.422;9.656;2023-07-29T11:25:56;28.10;99.90
4366;DHT22;2196;47.422;9.656;2023-07-29T11:28:24;28.20;99.90
4366;DHT22;2196;47.422;9.656;2023-07-29T11:30:51;28.30;99.90
4366;DHT22;2196;47.422;9.656;2023-07-29T11:33:23;28.50;99.90
4366;DHT22;2196;47.422;9.656;2023-07-29T11:35:50;28.60;99.90
4366;DHT22;2196;47.422;9.656;2023-07-29T11:38:19;28.40;99.90
4366;DHT22;2196;47.422;9.656;2023-07-29T11:40:55;28.40;99.90
4366;DHT22;2196;47.422;9.656;2023-07-29T11:43:22;28.50;99.90
4366;DHT22;2196;47.422;9.656;2023-07-29T11:45:49;28.40;99.90
4366;DHT22;2196;47.422;9.656;2023-07-29T11:48:16;27.90;99.90
4366;DHT22;2196;47.422;9.656;2023-07-29T11:50:45;27.60;99.90
4366;DHT22;2196;47.422;9.656;2023-07-29T11:53:13;27.80;99.90
4366;DHT22;2196;47.422;9.656;2023-07-29T11:55:40;27.80;99.90
4366;DHT22;2196;47.422;9.656;2023-07-29T11:58:07;27.90;99.90
4366;DHT22;2196;47.422;9.656;2023-07-29T12:00:34;27.90;99.90
4366;DHT22;2196;47.422;9.656;2023-07-29T12:03:01;27.80;99.90
4366;DHT22;2196;47.422;9.656;2023-07-29T12:05:28;27.80;99.90
4366;DHT22;2196;47.422;9.656;2023-07-29T12:07:57;27.50;99.90
4366;DHT22;2196;47.422;9.656;2023-07-29T12:10:25;27.30;99.90
4366;DHT22;2196;47.422;9.656;2023-07-29T12:12:52;27.20;99.90
4366;DHT22;2196;47.422;9.656;2023-07-29T12:15:26;26.90;99.90
4366;DHT22;2196;47.422;9.656;2023-07-29T12:17:54;26.30;99.90
4366;DHT22;2196;47.422;9.656;2023-07-29T12:20:22;26.20;99.90
4366;DHT22;2196;47.422;9.656;2023-07-29T12:22:57;26.00;99.90
4366;DHT22;2196;47.422;9.656;2023-07-29T12:25:27;25.60;99.90
4366;DHT22;2196;47.422;9.656;2023-07-29T12:27:54;25.50;99.90
4366;DHT22;2196;47.422;9.656;2023-07-29T12:30:22;25.20;99.90
4366;DHT22;2196;47.422;9.656;2023-07-29T12:32:52;24.90;99.90
4366;DHT22;2196;47.422;9.656;2023-07-29T12:35:19;24.90;99.90
4366;DHT22;2196;47.422;9.656;2023-07-29T12:37:46;24.90;99.90
4366;DHT22;2196;47.422;9.656;2023-07-29T12:40:26;24.80;99.90
4366;DHT22;2196;47.422;9.656;2023-07-29T12:42:54;24.30;99.90
4366;DHT22;2196;47.422;9.656;2023-07-29T12:45:21;24.00;99.90
4366;DHT22;2196;47.422;9.656;2023-07-29T12:47:49;23.90;99.90
4366;DHT22;2196;47.422;9.656;2023-07-29T12:50:16;23.90;99.90
4366;DHT22;2196;47.422;9.656;2023-07-29T12:52:43;23.90;99.90
4366;DHT22;2196;47.422;9.656;2023-07-29T12:55:10;23.80;99.90
4366;DHT22;2196;47.422;9.656;2023-07-29T12:57:41;23.50;99.90
4366;DHT22;2196;47.422;9.656;2023-07-29T13:00:10;23.30;99.90
4366;DHT22;2196;47.422;9.656;2023-07-29T13:02:37;23.20;99.90
4366;DHT22;2196;47.422;9.656;2023-07-29T13:05:05;23.10;99.90
4366;DHT22;2196;47.422;9.656;2023-07-29T13:07:32;23.00;99.90
4366;DHT22;2196;47.422;9.656;2023-07-29T13:10:00;22.80;99.90
4366;DHT22;2196;47.422;9.656;2023-07-29T13:12:27;22.60;99.90
4366;DHT22;2196;47.422;9.656;2023-07-29T13:14:55;22.40;99.90
4366;DHT22;2196;47.422;9.656;2023-07-29T13:17:22;22.30;99.90
4366;DHT22;2196;47.422;9.656;2023-07-29T13:19:50;22.20;99.90
4366;DHT22;2196;47.422;9.656;2023-07-29T13:22:17;22.20;99.90
4366;DHT22;2196;47.422;9.656;2023-07-29T13:24:44;22.40;99.90
4366;DHT22;2196;47.422;9.656;2023-07-29T13:27:11;22.60;99.90
4366;DHT22;2196;47.422;9.656;2023-07-29T13:29:39;23.00;99.90
4366;DHT22;2196;47.422;9.656;2023-07-29T13:32:08;23.10;99.90
4366;DHT22;2196;47.422;9.656;2023-07-29T13:34:36;23.30;99.90
4366;DHT22;2196;47.422;9.656;2023-07-29T13:37:05;23.30;99.90
4366;DHT22;2196;47.422;9.656;2023-07-29T13:39:32;23.10;99.90
4366;DHT22;2196;47.422;9.656;2023-07-29T13:41:59;23.00;99.90
4366;DHT22;2196;47.422;9.656;2023-07-29T13:44:26;22.80;99.90
4366;DHT22;2196;47.422;9.656;2023-07-29T13:46:53;22.40;99.90
4366;DHT22;2196;47.422;9.656;2023-07-29T13:49:20;22.30;99.90
4366;DHT22;2196;47.422;9.656;2023-07-29T13:51:47;22.20;99.90
4366;DHT22;2196;47.422;9.656;2023-07-29T13:54:14;22.10;99.90
4366;DHT22;2196;47.422;9.656;2023-07-29T13:56:41;22.00;99.90
4366;DHT22;2196;47.422;9.656;2023-07-29T13:59:08;22.10;99.90
4366;DHT22;2196;47.422;9.656;2023-07-29T14:01:35;22.10;99.90
4366;DHT22;2196;47.422;9.656;2023-07-29T14:04:02;21.90;99.90
4366;DHT22;2196;47.422;9.656;2023-07-29T14:06:32;21.70;99.90
4366;DHT22;2196;47.422;9.656;2023-07-29T14:08:59;21.50;99.90
4366;DHT22;2196;47.422;9.656;2023-07-29T14:11:26;21.30;99.90
4366;DHT22;2196;47.422;9.656;2023-07-29T14:13:53;21.20;99.90
4366;DHT22;2196;47.422;9.656;2023-07-29T14:16:20;21.00;99.90
4366;DHT22;2196;47.422;9.656;2023-07-29T14:18:46;20.70;99.90
4366;DHT22;2196;47.422;9.656;2023-07-29T14:21:13;20.60;99.90
4366;DHT22;2196;47.422;9.656;2023-07-29T14:23:42;20.40;99.90
4366;DHT22;2196;47.422;9.656;2023-07-29T14:26:10;20.40;99.90
4366;DHT22;2196;47.422;9.656;2023-07-29T14:28:37;20.30;99.90
4366;DHT22;2196;47.422;9.656;2023-07-29T14:31:03;20.30;99.90
4366;DHT22;2196;47.422;9.656;2023-07-29T14:33:30;20.30;99.90
4366;DHT22;2196;47.422;9.656;2023-07-29T14:35:57;20.30;99.90
4366;DHT22;2196;47.422;9.656;2023-07-29T14:38:23;20.20;99.90
4366;DHT22;2196;47.422;9.656;2023-07-29T14:40:53;20.00;99.90
4366;DHT22;2196;47.422;9.656;2023-07-29T14:43:22;20.00;99.90
4366;DHT22;2196;47.422;9.656;2023-07-29T14:45:49;20.10;99.90
4366;DHT22;2196;47.422;9.656;2023-07-29T14:48:16;20.00;99.90
4366;DHT22;2196;47.422;9.656;2023-07-29T14:50:43;19.90;99.90
4366;DHT22;2196;47.422;9.656;2023-07-29T14:53:10;19.80;99.90
4366;DHT22;2196;47.422;9.656;2023-07-29T14:55:37;19.70;99.90
4366;DHT22;2196;47.422;9.656;2023-07-29T14:58:06;19.80;99.90
4366;DHT22;2196;47.422;9.656;2023-07-29T15:00:33;19.60;99.90
4366;DHT22;2196;47.422;9.656;2023-07-29T15:03:00;19.50;99.90
4366;DHT22;2196;47.422;9.656;2023-07-29T15:05:27;19.50;99.90
4366;DHT22;2196;47.422;9.656;2023-07-29T15:07:54;19.50;99.90
4366;DHT22;2196;47.422;9.656;2023-07-29T15:10:21;19.40;99.90
4366;DHT22;2196;47.422;9.656;2023-07-29T15:12:48;19.30;99.90
4366;DHT22;2196;47.422;9.656;2023-07-29T15:15:19;19.30;99.90
4366;DHT22;2196;47.422;9.656;2023-07-29T15:17:46;19.40;99.90
4366;DHT22;2196;47.422;9.656;2023-07-29T15:20:13;19.40;99.90
4366;DHT22;2196;47.422;9.656;2023-07-29T15:22:40;19.40;99.90
4366;DHT22;2196;47.422;9.656;2023-07-29T15:25:08;19.40;99.90
4366;DHT22;2196;47.422;9.656;2023-07-29T15:27:36;19.50;99.90
4366;DHT22;2196;47.422;9.656;2023-07-29T15:30:05;19.50;99.90
4366;DHT22;2196;47.422;9.656;2023-07-29T15:32:33;19.50;99.90
4366;DHT22;2196;47.422;9.656;2023-07-29T15:35:00;19.50;99.90
4366;DHT22;2196;47.422;9.656;2023-07-29T15:37:27;19.60;99.90
4366;DHT22;2196;47.422;9.656;2023-07-29T15:39:54;19.50;99.90
4366;DHT22;2196;47.422;9.656;2023-07-29T15:42:21;19.50;99.90
4366;DHT22;2196;47.422;9.656;2023-07-29T15:44:48;19.50;99.90
4366;DHT22;2196;47.422;9.656;2023-07-29T15:47:15;19.50;99.90
4366;DHT22;2196;47.422;9.656;2023-07-29T15:49:45;19.50;99.90
4366;DHT22;2196;47.422;9.656;2023-07-29T15:52:12;19.50;99.90
4366;DHT22;2196;47.422;9.656;2023-07-29T15:54:40;19.50;99.90
4366;DHT22;2196;47.422;9.656;2023-07-29T15:57:07;19.50;99.90
4366;DHT22;2196;47.422;9.656;2023-07-29T15:59:34;19.50;99.90
4366;DHT22;2196;47.422;9.656;2023-07-29T16:02:01;19.50;99.90
4366;DHT22;2196;47.422;9.656;2023-07-29T16:04:28;19.50;99.90
4366;DHT22;2196;47.422;9.656;2023-07-29T16:06:56;19.50;99.90